createdAt,value
2023-08-07T00:02:05.244Z,14.70
2023-08-07T00:04:31.820Z,14.69
2023-08-07T00:06:59.480Z,14.69
2023-08-07T00:09:26.143Z,14.75
2023-08-07T00:11:54.026Z,14.59
2023-08-07T00:14:21.981Z,14.67
2023-08-07T00:16:48.575Z,14.66
2023-08-07T00:19:15.118Z,14.63
2023-08-07T00:21:42.772Z,14.63
2023-08-07T00:24:09.340Z,14.63
2023-08-07T00:26:37.003Z,14.63
2023-08-07T00:29:03.571Z,14.60
2023-08-07T00:31:31.359Z,14.51
2023-08-07T00:34:01.144Z,14.39
2023-08-07T00:36:28.704Z,14.39
2023-08-07T00:38:56.529Z,14.27
2023-08-07T00:41:23.152Z,14.18
2023-08-07T00:43:50.838Z,14.11
2023-08-07T00:46:18.790Z,14.10
2023-08-07T00:48:45.598Z,14.07
2023-08-07T00:51:13.796Z,14.01
2023-08-07T00:53:41.945Z,13.98
2023-08-07T00:56:08.669Z,13.97
2023-08-07T00:58:36.450Z,13.98
2023-08-07T01:01:04.346Z,13.92
2023-08-07T01:03:31.090Z,13.73
2023-08-07T01:05:59.009Z,13.86
2023-08-07T01:08:27.572Z,13.88
2023-08-07T01:11:30.691Z,13.93
2023-08-07T01:14:16.009Z,13.90
2023-08-07T01:16:52.978Z,13.93
2023-08-07T01:19:28.914Z,13.89
2023-08-07T01:22:11.647Z,13.92
2023-08-07T01:24:41.246Z,13.92
2023-08-07T01:27:20.857Z,13.91
2023-08-07T01:29:51.366Z,13.93
2023-08-07T01:32:27.221Z,13.89
2023-08-07T01:34:56.644Z,13.89
2023-08-07T01:37:24.936Z,13.90
2023-08-07T01:39:52.412Z,13.89
2023-08-07T01:42:20.440Z,13.87
2023-08-07T01:44:47.081Z,13.83
2023-08-07T01:47:14.806Z,13.75
2023-08-07T01:49:41.394Z,13.72
2023-08-07T01:52:09.102Z,13.71
2023-08-07T01:54:36.729Z,13.68
2023-08-07T01:57:04.570Z,13.60
2023-08-07T01:59:31.130Z,13.60
2023-08-07T02:01:58.826Z,13.54
2023-08-07T02:04:25.425Z,13.49
2023-08-07T02:06:51.974Z,13.41
2023-08-07T02:09:19.565Z,13.31
2023-08-07T02:11:46.152Z,13.29
2023-08-07T02:14:13.770Z,13.25
2023-08-07T02:16:40.428Z,13.26
2023-08-07T02:19:07.010Z,13.23
2023-08-07T02:21:34.912Z,13.20
2023-08-07T02:24:02.568Z,13.21
2023-08-07T02:26:30.196Z,13.18
2023-08-07T02:28:56.776Z,13.24
2023-08-07T02:31:24.459Z,13.24
2023-08-07T02:33:51.062Z,13.26
2023-08-07T02:36:17.629Z,13.19
2023-08-07T02:38:45.260Z,13.21
2023-08-07T02:41:11.796Z,13.17
2023-08-07T02:43:38.347Z,13.19
2023-08-07T02:46:06.029Z,13.20
2023-08-07T02:48:32.655Z,13.11
2023-08-07T02:50:59.225Z,13.11
2023-08-07T02:53:26.813Z,13.06
2023-08-07T02:55:53.399Z,12.95
2023-08-07T02:58:21.132Z,12.91
2023-08-07T03:00:48.768Z,12.92
2023-08-07T03:03:16.439Z,12.89
2023-08-07T03:05:52.881Z,12.95
2023-08-07T03:08:20.503Z,12.89
2023-08-07T03:11:00.237Z,12.94
2023-08-07T03:13:27.588Z,12.93
2023-08-07T03:16:06.622Z,12.92
2023-08-07T03:18:33.295Z,13.01
2023-08-07T03:21:00.207Z,13.01
2023-08-07T03:23:29.959Z,13.02
2023-08-07T03:28:41.644Z,13.02
2023-08-07T03:31:08.386Z,12.98
2023-08-07T03:33:36.071Z,12.96
2023-08-07T03:36:02.687Z,12.94
2023-08-07T03:38:30.338Z,13.01
2023-08-07T03:40:56.882Z,13.08
2023-08-07T03:43:24.558Z,13.13
2023-08-07T03:45:59.347Z,13.14
2023-08-07T03:48:27.956Z,13.15
2023-08-07T03:51:03.367Z,13.18
2023-08-07T03:53:29.926Z,13.20
2023-08-07T03:55:57.571Z,13.25
2023-08-07T03:58:24.112Z,13.31
2023-08-07T04:00:53.530Z,13.37
2023-08-07T04:03:21.602Z,13.37
2023-08-07T04:05:49.387Z,13.38
2023-08-07T04:08:16.140Z,13.38
2023-08-07T04:10:42.732Z,13.40
2023-08-07T04:13:10.452Z,13.35
2023-08-07T04:15:37.069Z,13.29
2023-08-07T04:18:04.777Z,13.32
2023-08-07T04:20:31.349Z,13.26
2023-08-07T04:22:57.920Z,13.24
2023-08-07T04:25:25.744Z,13.29
2023-08-07T04:27:52.317Z,13.22
2023-08-07T04:30:18.952Z,13.36
2023-08-07T04:32:46.648Z,13.35
2023-08-07T04:35:13.210Z,13.38
2023-08-07T04:37:41.798Z,13.38
2023-08-07T04:40:08.943Z,13.41
2023-08-07T04:42:36.606Z,13.42
2023-08-07T04:45:03.307Z,13.40
2023-08-07T04:47:30.964Z,13.45
2023-08-07T04:49:57.551Z,13.48
2023-08-07T04:52:26.785Z,13.50
2023-08-07T04:54:53.697Z,13.53
2023-08-07T04:57:20.287Z,13.49
2023-08-07T04:59:47.919Z,13.42
2023-08-07T05:02:14.511Z,13.51
2023-08-07T05:04:42.131Z,13.58
2023-08-07T05:07:08.684Z,13.66
2023-08-07T05:09:36.310Z,13.69
2023-08-07T05:12:03.075Z,13.68
2023-08-07T05:14:33.696Z,13.69
2023-08-07T05:17:00.298Z,13.74
2023-08-07T05:19:27.105Z,13.73
2023-08-07T05:21:54.930Z,13.73
2023-08-07T05:24:21.694Z,13.75
2023-08-07T05:26:49.359Z,13.79
2023-08-07T05:29:15.897Z,13.81
2023-08-07T05:31:42.491Z,13.82
2023-08-07T05:34:10.104Z,13.84
2023-08-07T05:36:36.644Z,13.83
2023-08-07T05:39:06.845Z,13.88
2023-08-07T05:41:34.487Z,13.90
2023-08-07T05:44:01.073Z,13.87
2023-08-07T05:46:28.662Z,13.89
2023-08-07T05:48:55.219Z,13.84
2023-08-07T05:51:22.836Z,13.94
2023-08-07T05:53:50.543Z,14.00
2023-08-07T05:56:17.146Z,14.01
2023-08-07T05:58:43.729Z,14.06
2023-08-07T06:01:11.383Z,14.10
2023-08-07T06:03:39.035Z,14.14
2023-08-07T06:06:06.709Z,14.14
2023-08-07T06:08:33.290Z,14.13
2023-08-07T06:11:00.921Z,14.19
2023-08-07T06:13:36.119Z,14.25
2023-08-07T06:16:04.484Z,14.31
2023-08-07T06:18:31.069Z,14.39
2023-08-07T06:20:58.752Z,14.40
2023-08-07T06:23:25.333Z,14.42
2023-08-07T06:25:54.874Z,14.49
2023-08-07T06:28:25.349Z,14.48
2023-08-07T06:30:51.925Z,14.57
2023-08-07T06:33:19.521Z,14.62
2023-08-07T06:35:46.084Z,14.65
2023-08-07T06:38:12.700Z,14.69
2023-08-07T06:40:40.363Z,14.76
2023-08-07T06:43:06.906Z,14.69
2023-08-07T06:45:34.498Z,14.69
2023-08-07T06:48:02.202Z,14.68
2023-08-07T06:50:28.806Z,14.67
2023-08-07T06:52:55.394Z,14.69
2023-08-07T06:55:23.002Z,14.72
2023-08-07T06:57:49.608Z,14.86
2023-08-07T07:00:17.925Z,14.80
2023-08-07T07:02:44.535Z,14.79
2023-08-07T07:05:11.078Z,14.73
2023-08-07T07:07:38.729Z,14.83
2023-08-07T07:10:05.706Z,14.90
2023-08-07T07:12:33.319Z,14.98
2023-08-07T07:15:00.584Z,14.90
2023-08-07T07:17:28.270Z,14.99
2023-08-07T07:19:55.033Z,15.09
2023-08-07T07:22:21.610Z,15.18
2023-08-07T07:24:49.227Z,15.13
2023-08-07T07:27:15.773Z,15.13
2023-08-07T07:29:43.381Z,15.14
2023-08-07T07:32:09.954Z,15.13
2023-08-07T07:34:37.588Z,15.15
2023-08-07T07:37:04.749Z,15.21
2023-08-07T07:39:31.371Z,15.27
2023-08-07T07:41:59.186Z,15.35
2023-08-07T07:44:26.163Z,15.45
2023-08-07T07:46:53.844Z,15.52
2023-08-07T07:49:21.455Z,15.47
2023-08-07T07:51:49.057Z,15.40
2023-08-07T07:54:15.971Z,15.46
2023-08-07T07:56:45.121Z,15.53
2023-08-07T07:59:13.591Z,15.52
2023-08-07T08:01:40.183Z,15.62
2023-08-07T08:04:09.185Z,15.55
2023-08-07T08:06:35.813Z,15.44
2023-08-07T08:09:03.685Z,15.61
2023-08-07T08:11:31.324Z,15.69
2023-08-07T08:13:58.950Z,15.81
2023-08-07T08:16:25.584Z,15.87
2023-08-07T08:18:54.211Z,15.84
2023-08-07T08:21:20.772Z,15.91
2023-08-07T08:23:48.395Z,16.02
2023-08-07T08:26:14.977Z,16.06
2023-08-07T08:28:41.532Z,16.10
2023-08-07T08:31:09.157Z,16.15
2023-08-07T08:33:36.764Z,16.16
2023-08-07T08:36:03.383Z,16.27
2023-08-07T08:38:29.941Z,16.33
2023-08-07T08:40:57.980Z,16.35
2023-08-07T08:43:26.302Z,16.39
2023-08-07T08:45:55.264Z,16.31
2023-08-07T08:48:23.262Z,16.42
2023-08-07T08:50:50.921Z,16.51
2023-08-07T08:53:19.743Z,16.70
2023-08-07T08:55:46.680Z,16.73
2023-08-07T08:58:17.269Z,16.79
2023-08-07T09:00:44.112Z,16.66
2023-08-07T09:03:11.852Z,16.69
2023-08-07T09:05:39.757Z,16.68
2023-08-07T09:08:06.610Z,16.83
2023-08-07T09:10:33.517Z,16.94
2023-08-07T09:13:04.547Z,17.05
2023-08-07T09:15:33.892Z,17.07
2023-08-07T09:18:00.868Z,17.13
2023-08-07T09:20:27.717Z,17.16
2023-08-07T09:22:55.366Z,17.21
2023-08-07T09:25:30.623Z,17.26
2023-08-07T09:27:58.290Z,17.21
2023-08-07T09:30:29.906Z,17.23
2023-08-07T09:33:01.923Z,17.16
2023-08-07T09:35:31.388Z,17.20
2023-08-07T09:37:58.506Z,17.17
2023-08-07T09:40:26.170Z,17.17
2023-08-07T09:42:54.639Z,17.28
2023-08-07T09:45:25.156Z,17.39
2023-08-07T09:48:02.016Z,17.43
2023-08-07T09:50:30.879Z,17.57
2023-08-07T09:52:58.109Z,17.58
2023-08-07T09:55:26.322Z,17.67
2023-08-07T09:57:53.329Z,17.75
2023-08-07T10:00:21.457Z,17.81
2023-08-07T10:02:50.910Z,17.87
2023-08-07T10:05:18.521Z,17.80
2023-08-07T10:07:45.390Z,17.82
2023-08-07T10:10:13.191Z,17.95
2023-08-07T10:12:40.006Z,18.03
2023-08-07T10:15:07.706Z,18.11
2023-08-07T10:17:35.640Z,18.16
2023-08-07T10:20:02.369Z,18.16
2023-08-07T10:22:32.723Z,18.07
2023-08-07T10:25:02.657Z,18.12
2023-08-07T10:27:35.666Z,18.24
2023-08-07T10:30:07.722Z,18.22
2023-08-07T10:32:36.020Z,18.22
2023-08-07T10:35:06.590Z,18.27
2023-08-07T10:37:40.207Z,18.29
2023-08-07T10:40:08.492Z,18.34
2023-08-07T10:43:02.426Z,18.27
2023-08-07T10:45:29.593Z,18.20
2023-08-07T10:48:04.000Z,18.12
2023-08-07T10:50:35.248Z,17.91
2023-08-07T10:53:04.679Z,17.86
2023-08-07T10:55:49.842Z,17.82
2023-08-07T10:58:42.694Z,17.71
2023-08-07T11:01:27.586Z,17.67
2023-08-07T11:03:57.466Z,17.63
2023-08-07T11:06:29.859Z,17.64
2023-08-07T11:08:57.185Z,17.75
2023-08-07T11:11:24.872Z,17.71
2023-08-07T11:13:53.041Z,17.89
2023-08-07T11:16:20.337Z,17.80
2023-08-07T11:18:47.981Z,17.78
2023-08-07T11:21:14.635Z,17.99
2023-08-07T11:23:43.384Z,17.88
2023-08-07T11:26:10.463Z,17.82
2023-08-07T11:28:37.352Z,17.86
2023-08-07T11:31:05.215Z,17.96
2023-08-07T11:33:31.887Z,18.21
2023-08-07T11:35:59.765Z,18.25
2023-08-07T11:38:40.539Z,18.22
2023-08-07T11:41:09.497Z,18.42
2023-08-07T11:43:36.128Z,18.49
2023-08-07T11:46:04.569Z,18.53
2023-08-07T11:48:33.754Z,18.55
2023-08-07T11:51:01.686Z,18.56
2023-08-07T11:53:31.614Z,18.74
2023-08-07T11:56:09.119Z,18.85
2023-08-07T11:58:39.753Z,18.94
2023-08-07T12:01:07.183Z,19.05
2023-08-07T12:03:38.059Z,19.12
2023-08-07T12:06:07.558Z,19.20
2023-08-07T12:08:41.557Z,19.22
2023-08-07T12:11:14.189Z,19.32
2023-08-07T12:13:44.848Z,19.40
2023-08-07T12:16:13.063Z,19.37
2023-08-07T12:18:39.698Z,19.41
2023-08-07T12:21:08.807Z,19.47
2023-08-07T12:23:37.841Z,19.48
2023-08-07T12:26:05.588Z,19.29
2023-08-07T12:28:33.164Z,19.26
2023-08-07T12:30:59.953Z,19.34
2023-08-07T12:33:26.516Z,19.43
2023-08-07T12:35:54.846Z,19.40
2023-08-07T12:38:21.412Z,19.49
2023-08-07T12:40:48.071Z,19.36
2023-08-07T12:43:15.831Z,19.46
2023-08-07T12:48:13.083Z,19.56
2023-08-07T12:50:40.210Z,19.57
2023-08-07T12:53:08.070Z,19.63
2023-08-07T12:55:35.798Z,19.64
2023-08-07T12:58:02.385Z,19.65
2023-08-07T13:00:28.952Z,19.53
2023-08-07T13:02:56.573Z,19.60
2023-08-07T13:05:23.428Z,19.71
2023-08-07T13:07:51.202Z,19.75
2023-08-07T13:10:18.421Z,19.82
2023-08-07T13:12:48.997Z,19.85
2023-08-07T13:15:18.112Z,19.81
2023-08-07T13:17:45.242Z,19.87
2023-08-07T13:20:15.048Z,19.95
2023-08-07T13:22:43.671Z,20.02
2023-08-07T13:25:14.988Z,20.06
2023-08-07T13:27:42.574Z,20.03
2023-08-07T13:30:10.705Z,19.91
2023-08-07T13:32:37.778Z,19.92
2023-08-07T13:35:06.065Z,19.76
2023-08-07T13:37:32.852Z,19.82
2023-08-07T13:39:59.400Z,19.72
2023-08-07T13:42:27.343Z,19.64
2023-08-07T13:44:55.996Z,19.62
2023-08-07T13:47:22.696Z,19.56
2023-08-07T13:49:49.271Z,19.52
2023-08-07T13:52:17.356Z,19.36
2023-08-07T13:54:43.935Z,19.42
2023-08-07T13:57:10.518Z,19.50
2023-08-07T13:59:38.175Z,19.57
2023-08-07T14:02:04.913Z,19.63
2023-08-07T14:04:31.459Z,19.64
2023-08-07T14:07:00.310Z,19.74
2023-08-07T14:09:27.287Z,19.72
2023-08-07T14:11:55.421Z,19.79
2023-08-07T14:14:22.272Z,19.74
2023-08-07T14:16:48.886Z,19.76
2023-08-07T14:19:16.605Z,19.84
2023-08-07T14:21:43.145Z,19.96
2023-08-07T14:24:10.705Z,19.90
2023-08-07T14:26:37.332Z,19.97
2023-08-07T14:29:03.876Z,19.89
2023-08-07T14:31:31.572Z,19.80
2023-08-07T14:34:00.234Z,19.68
2023-08-07T14:36:26.683Z,19.68
2023-08-07T14:38:53.261Z,19.81
2023-08-07T14:41:20.896Z,19.64
2023-08-07T14:43:48.030Z,19.56
2023-08-07T14:46:17.920Z,19.66
2023-08-07T14:48:45.521Z,19.76
2023-08-07T14:51:12.075Z,19.80
2023-08-07T14:53:39.742Z,19.84
2023-08-07T14:56:06.419Z,19.85
2023-08-07T14:58:32.997Z,19.90
2023-08-07T15:01:00.651Z,19.78
2023-08-07T15:03:27.268Z,19.66
2023-08-07T15:05:53.821Z,19.64
2023-08-07T15:08:21.587Z,19.58
2023-08-07T15:10:48.154Z,19.56
2023-08-07T15:13:15.800Z,19.49
2023-08-07T15:15:42.427Z,19.45
2023-08-07T15:18:09.122Z,19.40
2023-08-07T15:20:38.235Z,19.45
2023-08-07T15:23:04.943Z,19.66
2023-08-07T15:25:31.526Z,19.71
2023-08-07T15:27:59.198Z,19.74
2023-08-07T15:30:28.054Z,19.65
2023-08-07T15:32:55.736Z,19.59
2023-08-07T15:35:23.400Z,19.65
2023-08-07T15:37:50.271Z,19.72
2023-08-07T15:40:17.967Z,19.80
2023-08-07T15:42:44.532Z,19.81
2023-08-07T15:45:11.160Z,19.91
2023-08-07T15:47:38.810Z,19.97
2023-08-07T15:50:05.892Z,20.05
2023-08-07T15:52:33.501Z,20.09
2023-08-07T15:55:00.103Z,19.99
2023-08-07T15:57:27.718Z,20.14
2023-08-07T15:59:54.271Z,20.15
2023-08-07T16:02:21.061Z,20.17
2023-08-07T16:04:48.834Z,20.24
2023-08-07T16:07:15.400Z,20.27
2023-08-07T16:09:41.989Z,20.44
2023-08-07T16:12:09.616Z,20.57
2023-08-07T16:14:37.887Z,20.68
2023-08-07T16:17:05.641Z,20.88
2023-08-07T16:19:33.287Z,20.94
2023-08-07T16:21:59.883Z,21.02
2023-08-07T16:24:26.460Z,21.11
2023-08-07T16:26:54.110Z,21.07
2023-08-07T16:29:20.712Z,21.15
2023-08-07T16:31:48.399Z,21.21
2023-08-07T16:34:15.027Z,21.25
2023-08-07T16:36:42.684Z,21.08
2023-08-07T16:39:09.277Z,21.01
2023-08-07T16:41:36.873Z,20.87
2023-08-07T16:44:03.572Z,20.76
2023-08-07T16:46:31.103Z,20.79
2023-08-07T16:49:01.026Z,20.72
2023-08-07T16:51:27.620Z,20.73
2023-08-07T16:53:54.174Z,20.72
2023-08-07T16:56:21.761Z,20.69
2023-08-07T16:58:48.341Z,20.57
2023-08-07T17:01:14.944Z,20.53
2023-08-07T17:03:42.684Z,20.65
2023-08-07T17:06:09.309Z,20.72
2023-08-07T17:08:37.982Z,20.67
2023-08-07T17:11:04.830Z,20.68
2023-08-07T17:13:32.874Z,20.65
2023-08-07T17:15:59.483Z,20.57
2023-08-07T17:18:26.078Z,20.58
2023-08-07T17:20:53.681Z,20.75
2023-08-07T17:23:20.258Z,20.71
2023-08-07T17:25:47.896Z,20.63
2023-08-07T17:28:14.443Z,20.51
2023-08-07T17:30:41.058Z,20.50
2023-08-07T17:33:08.714Z,20.41
2023-08-07T17:35:36.389Z,20.67
2023-08-07T17:38:02.981Z,20.66
2023-08-07T17:40:29.559Z,20.68
2023-08-07T17:42:57.184Z,21.01
2023-08-07T17:45:23.730Z,20.86
2023-08-07T17:47:51.427Z,20.94
2023-08-07T17:50:18.183Z,21.05
2023-08-07T17:52:45.835Z,20.93
2023-08-07T17:55:12.392Z,20.91
2023-08-07T17:57:39.143Z,20.81
2023-08-07T18:00:07.841Z,20.81
2023-08-07T18:02:35.008Z,20.70
2023-08-07T18:05:01.850Z,20.62
2023-08-07T18:07:29.996Z,20.50
2023-08-07T18:09:57.765Z,20.37
2023-08-07T18:12:24.308Z,20.27
2023-08-07T18:14:50.850Z,20.25
2023-08-07T18:17:18.489Z,20.19
2023-08-07T18:19:45.058Z,20.11
2023-08-07T18:22:12.700Z,20.06
2023-08-07T18:24:39.290Z,20.08
2023-08-07T18:27:06.957Z,20.02
2023-08-07T18:29:33.591Z,20.04
2023-08-07T18:32:01.326Z,20.01
2023-08-07T18:34:27.908Z,20.03
2023-08-07T18:36:54.446Z,20.02
2023-08-07T18:39:22.050Z,20.06
2023-08-07T18:41:48.770Z,19.95
2023-08-07T18:44:15.354Z,19.96
2023-08-07T18:46:44.149Z,19.86
2023-08-07T18:49:10.985Z,19.85
2023-08-07T18:51:37.664Z,19.75
2023-08-07T18:54:06.795Z,19.70
2023-08-07T18:56:33.369Z,19.66
2023-08-07T18:59:00.964Z,19.61
2023-08-07T19:01:27.522Z,19.65
2023-08-07T19:03:55.139Z,19.60
2023-08-07T19:06:21.711Z,19.66
2023-08-07T19:08:50.347Z,19.67
2023-08-07T19:11:16.799Z,19.71
2023-08-07T19:13:44.447Z,19.67
2023-08-07T19:16:11.108Z,19.63
2023-08-07T19:18:37.672Z,19.76
2023-08-07T19:21:05.371Z,19.77
2023-08-07T19:23:31.957Z,19.74
2023-08-07T19:26:00.233Z,19.69
2023-08-07T19:28:26.959Z,19.64
2023-08-07T19:31:05.148Z,19.62
2023-08-07T19:33:34.085Z,19.59
2023-08-07T19:36:00.675Z,19.58
2023-08-07T19:38:28.589Z,19.54
2023-08-07T19:40:55.173Z,19.50
2023-08-07T19:43:21.836Z,19.49
2023-08-07T19:45:49.473Z,19.43
2023-08-07T19:48:16.067Z,19.36
2023-08-07T19:50:43.722Z,19.30
2023-08-07T19:53:10.298Z,19.26
2023-08-07T19:55:36.866Z,19.26
2023-08-07T19:58:04.572Z,19.22
2023-08-07T20:00:31.234Z,19.21
2023-08-07T20:02:58.918Z,19.20
2023-08-07T20:05:25.666Z,19.15
2023-08-07T20:07:52.227Z,19.12
2023-08-07T20:10:19.849Z,19.10
2023-08-07T20:12:46.382Z,19.03
2023-08-07T20:15:14.153Z,19.02
2023-08-07T20:17:40.896Z,19.00
2023-08-07T20:20:08.036Z,18.99
2023-08-07T20:22:35.775Z,18.97
2023-08-07T20:25:02.351Z,18.96
2023-08-07T20:27:28.953Z,18.97
2023-08-07T20:29:56.566Z,18.89
2023-08-07T20:32:23.203Z,18.75
2023-08-07T20:34:50.855Z,18.79
2023-08-07T20:37:17.430Z,18.79
2023-08-07T20:39:43.964Z,18.70
2023-08-07T20:42:11.577Z,18.69
2023-08-07T20:44:39.172Z,18.69
2023-08-07T20:47:05.871Z,18.60
2023-08-07T20:49:32.470Z,18.66
2023-08-07T20:52:00.327Z,18.65
2023-08-07T20:54:27.267Z,18.61
2023-08-07T20:56:54.859Z,18.57
2023-08-07T20:59:21.447Z,18.53
2023-08-07T21:01:49.042Z,18.47
2023-08-07T21:04:15.668Z,18.44
2023-08-07T21:06:42.592Z,18.42
2023-08-07T21:09:10.338Z,18.33
2023-08-07T21:11:37.124Z,18.38
2023-08-07T21:14:04.878Z,18.36
2023-08-07T21:16:31.926Z,18.35
2023-08-07T21:18:59.813Z,18.18
2023-08-07T21:21:26.756Z,18.18
2023-08-07T21:23:53.519Z,18.20
2023-08-07T21:26:21.349Z,18.21
2023-08-07T21:28:47.925Z,18.12
2023-08-07T21:31:15.718Z,18.07
2023-08-07T21:33:42.282Z,18.03
2023-08-07T21:36:08.822Z,17.96
2023-08-07T21:38:36.480Z,17.90
2023-08-07T21:41:03.039Z,18.05
2023-08-07T21:43:30.657Z,18.10
2023-08-07T21:45:57.355Z,18.09
2023-08-07T21:48:23.934Z,18.09
2023-08-07T21:50:51.552Z,18.09
2023-08-07T21:53:18.622Z,18.00
2023-08-07T21:55:46.229Z,17.98
2023-08-07T21:58:12.811Z,18.04
2023-08-07T22:00:40.637Z,18.07
2023-08-07T22:03:07.288Z,18.09
2023-08-07T22:05:33.950Z,18.08
2023-08-07T22:08:01.573Z,18.07
2023-08-07T22:10:28.514Z,18.00
2023-08-07T22:12:56.207Z,17.98
2023-08-07T22:15:22.871Z,17.94
2023-08-07T22:17:49.489Z,17.95
2023-08-07T22:20:17.193Z,17.79
2023-08-07T22:22:44.212Z,17.75
2023-08-07T22:25:11.813Z,17.61
2023-08-07T22:27:38.540Z,17.77
2023-08-07T22:30:07.111Z,17.82
2023-08-07T22:32:33.794Z,17.68
2023-08-07T22:35:01.520Z,17.50
2023-08-07T22:37:28.060Z,17.36
2023-08-07T22:39:55.667Z,17.24
2023-08-07T22:42:23.250Z,17.13
2023-08-07T22:44:53.115Z,17.02
2023-08-07T22:47:19.764Z,16.98
2023-08-07T22:49:47.824Z,16.88
2023-08-07T22:52:14.403Z,16.77
2023-08-07T22:54:42.515Z,16.67
2023-08-07T22:57:09.106Z,16.56
2023-08-07T22:59:36.759Z,16.47
2023-08-07T23:02:04.072Z,16.40
2023-08-07T23:04:30.596Z,16.29
2023-08-07T23:06:58.219Z,16.22
2023-08-07T23:09:24.793Z,16.17
2023-08-07T23:11:51.338Z,16.17
2023-08-07T23:14:18.962Z,16.14
2023-08-07T23:16:45.506Z,16.10
2023-08-07T23:19:13.567Z,16.11
2023-08-07T23:21:40.141Z,16.05
2023-08-07T23:24:07.840Z,16.03
2023-08-07T23:26:34.389Z,16.01
2023-08-07T23:29:02.290Z,15.94
2023-08-07T23:31:30.040Z,15.95
2023-08-07T23:33:57.734Z,15.94
2023-08-07T23:36:24.456Z,15.96
2023-08-07T23:38:52.144Z,15.95
2023-08-07T23:41:18.695Z,15.94
2023-08-07T23:43:45.299Z,15.94
2023-08-07T23:46:12.965Z,15.99
2023-08-07T23:48:39.544Z,16.00
2023-08-07T23:51:07.179Z,16.02
2023-08-07T23:53:33.883Z,16.02
2023-08-07T23:56:01.673Z,16.01
2023-08-07T23:58:28.254Z,15.98
